createdAt,value
2022-08-29T00:00:18.147Z,2.33
2022-08-29T00:02:50.696Z,2.30
2022-08-29T00:05:24.861Z,2.72
2022-08-29T00:07:52.766Z,2.45
2022-08-29T00:10:21.401Z,2.58
2022-08-29T00:12:48.519Z,2.38
2022-08-29T00:15:16.215Z,2.97
2022-08-29T00:17:43.733Z,2.65
2022-08-29T00:20:15.681Z,2.35
2022-08-29T00:22:42.816Z,2.45
2022-08-29T00:25:11.801Z,2.30
2022-08-29T00:27:38.350Z,2.63
2022-08-29T00:30:07.370Z,2.63
2022-08-29T00:32:36.193Z,2.83
2022-08-29T00:35:07.432Z,2.67
2022-08-29T00:37:34.129Z,2.70
2022-08-29T00:40:00.875Z,2.95
2022-08-29T00:42:28.033Z,2.38
2022-08-29T00:44:54.869Z,2.83
2022-08-29T00:47:26.717Z,2.92
2022-08-29T00:49:57.192Z,2.65
2022-08-29T00:52:34.180Z,2.53
2022-08-29T00:55:04.059Z,2.30
2022-08-29T00:57:32.305Z,2.30
2022-08-29T00:59:59.738Z,2.40
2022-08-29T01:02:26.643Z,2.33
2022-08-29T01:04:54.146Z,3.00
2022-08-29T01:07:20.751Z,2.17
2022-08-29T01:09:47.447Z,2.28
2022-08-29T01:12:19.332Z,2.70
2022-08-29T01:14:53.085Z,2.95
2022-08-29T01:17:47.177Z,2.40
2022-08-29T01:20:23.547Z,2.95
2022-08-29T01:23:20.447Z,1.95
2022-08-29T01:25:49.304Z,2.60
2022-08-29T01:28:21.799Z,2.65
2022-08-29T01:30:58.442Z,2.42
2022-08-29T01:33:25.537Z,2.28
2022-08-29T01:35:52.464Z,2.75
2022-08-29T01:38:27.627Z,2.05
2022-08-29T01:41:02.599Z,2.47
2022-08-29T01:43:29.635Z,2.50
2022-08-29T01:45:58.542Z,2.42
2022-08-29T01:48:25.217Z,2.30
2022-08-29T01:50:51.974Z,2.67
2022-08-29T01:53:19.364Z,2.60
2022-08-29T01:55:45.909Z,2.50
2022-08-29T01:58:12.656Z,2.30
2022-08-29T02:00:39.694Z,2.33
2022-08-29T02:03:07.215Z,2.20
2022-08-29T02:05:33.836Z,2.70
2022-08-29T02:08:00.568Z,2.30
2022-08-29T02:10:27.116Z,2.80
2022-08-29T02:12:53.726Z,2.60
2022-08-29T02:15:21.473Z,2.60
2022-08-29T02:17:48.671Z,2.95
2022-08-29T02:20:15.955Z,2.70
2022-08-29T02:22:42.761Z,2.58
2022-08-29T02:25:29.540Z,2.40
2022-08-29T02:27:57.669Z,2.45
2022-08-29T02:30:25.587Z,2.28
2022-08-29T02:32:52.614Z,2.45
2022-08-29T02:35:19.481Z,2.33
2022-08-29T02:37:46.010Z,2.45
2022-08-29T02:40:12.558Z,2.50
2022-08-29T02:42:39.138Z,2.63
2022-08-29T02:45:06.155Z,2.63
2022-08-29T02:47:35.496Z,2.15
2022-08-29T02:50:05.912Z,2.30
2022-08-29T02:52:36.766Z,2.53
2022-08-29T02:55:04.332Z,2.45
2022-08-29T02:57:30.893Z,2.78
2022-08-29T02:59:57.405Z,2.70
2022-08-29T03:02:23.975Z,2.45
2022-08-29T03:04:50.513Z,2.75
2022-08-29T03:07:17.037Z,2.22
2022-08-29T03:09:43.580Z,2.72
2022-08-29T03:12:10.161Z,2.45
2022-08-29T03:14:36.830Z,2.80
2022-08-29T03:17:03.613Z,2.40
2022-08-29T03:19:30.184Z,2.30
2022-08-29T03:21:56.701Z,2.33
2022-08-29T03:24:23.577Z,2.55
2022-08-29T03:26:56.527Z,2.15
2022-08-29T03:29:23.921Z,2.25
2022-08-29T03:31:50.443Z,2.38
2022-08-29T03:34:17.017Z,2.78
2022-08-29T03:36:43.686Z,2.40
2022-08-29T03:39:10.321Z,2.22
2022-08-29T03:41:36.954Z,2.50
2022-08-29T03:44:03.651Z,2.42
2022-08-29T03:46:30.204Z,2.13
2022-08-29T03:48:56.765Z,2.47
2022-08-29T03:51:24.051Z,2.00
2022-08-29T03:53:56.018Z,2.35
2022-08-29T03:56:23.043Z,2.08
2022-08-29T03:58:53.328Z,2.38
2022-08-29T04:01:22.690Z,2.25
2022-08-29T04:03:49.645Z,2.20
2022-08-29T04:06:16.579Z,2.50
2022-08-29T04:08:43.486Z,2.78
2022-08-29T04:11:12.046Z,2.30
2022-08-29T04:13:38.527Z,2.40
2022-08-29T04:16:17.088Z,2.00
2022-08-29T04:18:43.851Z,3.03
2022-08-29T04:21:10.564Z,2.33
2022-08-29T04:23:38.856Z,2.20
2022-08-29T04:26:31.650Z,2.08
2022-08-29T04:28:58.772Z,2.20
2022-08-29T04:31:25.473Z,2.35
2022-08-29T04:33:52.011Z,2.60
2022-08-29T04:36:18.944Z,2.15
2022-08-29T04:38:45.444Z,2.67
2022-08-29T04:41:15.894Z,2.70
2022-08-29T04:43:42.841Z,2.13
2022-08-29T04:46:09.442Z,2.55
2022-08-29T04:48:50.434Z,2.65
2022-08-29T04:51:16.972Z,2.05
2022-08-29T04:53:43.502Z,2.75
2022-08-29T04:56:12.297Z,2.17
2022-08-29T04:58:41.971Z,2.38
2022-08-29T05:01:19.005Z,2.40
2022-08-29T05:03:45.896Z,2.40
2022-08-29T05:06:14.771Z,2.50
2022-08-29T05:08:43.096Z,2.47
2022-08-29T05:11:13.109Z,2.90
2022-08-29T05:13:39.654Z,1.98
2022-08-29T05:16:12.033Z,2.08
2022-08-29T05:18:39.238Z,2.28
2022-08-29T05:21:06.335Z,2.22
2022-08-29T05:23:33.352Z,2.75
2022-08-29T05:26:03.367Z,2.00
2022-08-29T05:28:31.886Z,2.72
2022-08-29T05:31:00.101Z,2.42
2022-08-29T05:33:27.517Z,1.92
2022-08-29T05:35:54.141Z,2.30
2022-08-29T05:38:20.889Z,2.67
2022-08-29T05:40:47.500Z,2.20
2022-08-29T05:43:14.145Z,2.33
2022-08-29T05:45:41.751Z,1.98
2022-08-29T05:48:09.627Z,2.17
2022-08-29T05:50:43.268Z,2.90
2022-08-29T05:53:16.706Z,2.10
2022-08-29T05:55:44.273Z,2.05
2022-08-29T05:58:12.522Z,2.40
2022-08-29T06:00:43.934Z,2.20
2022-08-29T06:03:11.748Z,2.13
2022-08-29T06:05:39.185Z,2.20
2022-08-29T06:08:06.653Z,2.00
2022-08-29T06:10:34.330Z,2.42
2022-08-29T06:13:00.836Z,2.40
2022-08-29T06:15:29.772Z,2.00
2022-08-29T06:17:56.805Z,1.92
2022-08-29T06:20:23.640Z,2.20
2022-08-29T06:22:50.230Z,2.70
2022-08-29T06:25:37.941Z,2.55
2022-08-29T06:28:03.644Z,2.25
2022-08-29T06:30:33.809Z,2.17
2022-08-29T06:33:01.395Z,2.10
2022-08-29T06:35:28.219Z,1.92
2022-08-29T06:37:54.673Z,2.30
2022-08-29T06:40:21.302Z,2.25
2022-08-29T06:42:47.908Z,2.70
2022-08-29T06:45:14.943Z,2.40
2022-08-29T06:47:41.443Z,2.92
2022-08-29T06:50:08.356Z,2.20
2022-08-29T06:52:35.609Z,2.05
2022-08-29T06:55:02.843Z,2.55
2022-08-29T06:57:29.532Z,3.47
2022-08-29T06:59:56.103Z,2.90
2022-08-29T07:02:22.725Z,2.67
2022-08-29T07:04:49.327Z,2.88
2022-08-29T07:07:15.911Z,3.00
2022-08-29T07:09:42.504Z,2.45
2022-08-29T07:12:09.012Z,2.63
2022-08-29T07:14:35.569Z,2.50
2022-08-29T07:17:02.141Z,2.83
2022-08-29T07:19:28.745Z,2.75
2022-08-29T07:21:58.476Z,2.80
2022-08-29T07:24:25.657Z,2.95
2022-08-29T07:26:52.232Z,3.40
2022-08-29T07:29:21.261Z,3.22
2022-08-29T07:31:48.339Z,3.08
2022-08-29T07:34:15.686Z,3.40
2022-08-29T07:36:42.378Z,3.95
2022-08-29T07:39:16.884Z,4.40
2022-08-29T07:41:44.462Z,4.03
2022-08-29T07:44:12.384Z,3.53
2022-08-29T07:46:38.918Z,3.88
2022-08-29T07:49:05.730Z,3.88
2022-08-29T07:51:32.284Z,3.90
2022-08-29T07:53:59.052Z,4.07
2022-08-29T07:56:30.317Z,4.07
2022-08-29T07:58:59.128Z,4.15
2022-08-29T08:01:26.975Z,4.45
2022-08-29T08:03:54.143Z,4.20
2022-08-29T08:06:23.122Z,4.07
2022-08-29T08:08:51.083Z,4.10
2022-08-29T08:11:18.820Z,3.95
2022-08-29T08:13:45.768Z,4.15
2022-08-29T08:16:16.028Z,3.50
2022-08-29T08:18:43.914Z,4.32
2022-08-29T08:21:12.003Z,3.85
2022-08-29T08:23:40.467Z,3.95
2022-08-29T08:26:08.391Z,4.63
2022-08-29T08:28:35.246Z,4.93
2022-08-29T08:31:06.413Z,5.65
2022-08-29T08:33:35.786Z,5.53
2022-08-29T08:36:06.123Z,4.75
2022-08-29T08:38:32.936Z,5.15
2022-08-29T08:41:28.439Z,4.57
2022-08-29T08:44:04.066Z,4.43
2022-08-29T08:46:42.004Z,4.40
2022-08-29T08:49:42.332Z,4.35
2022-08-29T08:52:21.263Z,5.20
2022-08-29T08:54:59.590Z,4.63
2022-08-29T08:57:32.161Z,4.70
2022-08-29T08:59:59.375Z,4.40
2022-08-29T09:02:35.547Z,3.90
2022-08-29T09:05:21.357Z,3.97
2022-08-29T09:08:12.569Z,3.88
2022-08-29T09:10:59.405Z,4.25
2022-08-29T09:13:51.585Z,4.15
2022-08-29T09:16:34.107Z,3.67
2022-08-29T09:19:09.481Z,4.22
2022-08-29T09:22:03.477Z,3.90
2022-08-29T09:24:40.742Z,3.80
2022-08-29T09:27:09.001Z,4.10
2022-08-29T09:29:37.257Z,3.63
2022-08-29T09:32:12.675Z,3.58
2022-08-29T09:35:07.502Z,3.97
2022-08-29T09:37:35.130Z,3.78
2022-08-29T09:40:11.313Z,4.20
2022-08-29T09:42:43.377Z,4.00
2022-08-29T09:45:23.843Z,3.75
2022-08-29T09:48:07.199Z,4.40
2022-08-29T09:50:33.778Z,3.80
2022-08-29T09:53:02.461Z,3.70
2022-08-29T09:55:45.510Z,3.50
2022-08-29T09:58:19.111Z,3.53
2022-08-29T10:01:04.681Z,3.30
2022-08-29T10:03:41.381Z,3.33
2022-08-29T10:06:21.590Z,3.65
2022-08-29T10:09:05.575Z,3.90
2022-08-29T10:11:44.067Z,3.80
2022-08-29T10:14:16.750Z,3.58
2022-08-29T10:17:19.444Z,3.75
2022-08-29T10:19:46.309Z,3.20
2022-08-29T10:22:35.776Z,3.03
2022-08-29T10:25:11.851Z,3.38
2022-08-29T10:27:54.251Z,3.33
2022-08-29T10:30:40.220Z,3.42
2022-08-29T10:33:14.479Z,3.38
2022-08-29T10:35:54.735Z,3.30
2022-08-29T10:38:44.454Z,2.97
2022-08-29T10:41:29.099Z,2.85
2022-08-29T10:47:21.869Z,3.30
2022-08-29T10:50:27.521Z,3.28
2022-08-29T10:53:23.980Z,3.22
2022-08-29T10:56:06.377Z,3.20
2022-08-29T10:58:51.780Z,2.92
2022-08-29T11:01:36.487Z,2.97
2022-08-29T11:04:17.256Z,3.70
2022-08-29T11:06:55.212Z,3.15
2022-08-29T11:09:27.712Z,3.67
2022-08-29T11:12:07.941Z,3.70
2022-08-29T11:14:40.731Z,3.10
2022-08-29T11:17:11.497Z,3.28
2022-08-29T11:19:45.809Z,3.20
2022-08-29T11:22:39.189Z,3.60
2022-08-29T11:25:12.390Z,3.50
2022-08-29T11:27:53.511Z,3.50
2022-08-29T11:30:27.865Z,3.35
2022-08-29T11:33:14.903Z,3.15
2022-08-29T11:36:19.156Z,3.00
2022-08-29T11:38:59.213Z,3.50
2022-08-29T11:41:52.302Z,2.85
2022-08-29T11:44:27.745Z,3.60
2022-08-29T11:46:56.646Z,3.50
2022-08-29T11:49:48.916Z,3.15
2022-08-29T11:52:22.306Z,3.40
2022-08-29T11:54:54.277Z,3.40
2022-08-29T11:57:20.765Z,3.13
2022-08-29T11:59:49.809Z,3.05
2022-08-29T12:02:28.482Z,2.78
2022-08-29T12:04:57.888Z,2.97
2022-08-29T12:07:44.457Z,3.08
2022-08-29T12:10:29.455Z,3.00
2022-08-29T12:13:04.085Z,2.83
2022-08-29T12:15:31.744Z,3.20
2022-08-29T12:18:13.280Z,3.08
2022-08-29T12:20:50.867Z,3.00
2022-08-29T12:23:24.216Z,2.50
2022-08-29T12:26:15.744Z,2.53
2022-08-29T12:28:56.170Z,2.47
2022-08-29T12:31:26.939Z,2.05
2022-08-29T12:34:19.448Z,2.22
2022-08-29T12:37:17.084Z,2.60
2022-08-29T12:39:58.368Z,2.38
2022-08-29T12:42:46.420Z,2.05
2022-08-29T12:45:18.998Z,2.30
2022-08-29T12:47:50.718Z,2.20
2022-08-29T12:50:25.267Z,2.42
2022-08-29T12:53:02.142Z,2.40
2022-08-29T12:55:36.950Z,2.65
2022-08-29T12:58:03.524Z,2.65
2022-08-29T13:00:32.466Z,3.00
2022-08-29T13:03:20.421Z,2.40
2022-08-29T13:05:48.195Z,2.38
2022-08-29T13:08:27.090Z,2.28
2022-08-29T13:11:04.043Z,2.28
2022-08-29T13:13:30.798Z,2.30
2022-08-29T13:16:01.558Z,2.42
2022-08-29T13:18:29.759Z,2.30
2022-08-29T13:21:28.697Z,2.30
2022-08-29T13:24:01.241Z,2.60
2022-08-29T13:26:32.317Z,2.13
2022-08-29T13:29:27.620Z,2.08
2022-08-29T13:32:24.138Z,2.55
2022-08-29T13:35:13.816Z,2.20
2022-08-29T13:37:43.800Z,2.38
2022-08-29T13:40:29.278Z,2.13
2022-08-29T13:42:56.765Z,2.30
2022-08-29T13:45:25.104Z,2.50
2022-08-29T13:48:01.553Z,1.80
2022-08-29T13:50:29.114Z,2.03
2022-08-29T13:52:57.540Z,2.15
2022-08-29T13:55:24.998Z,2.30
2022-08-29T13:57:53.268Z,2.25
2022-08-29T14:00:24.680Z,2.00
2022-08-29T14:03:03.036Z,2.20
2022-08-29T14:05:30.146Z,2.13
2022-08-29T14:07:56.862Z,2.35
2022-08-29T14:10:23.490Z,2.17
2022-08-29T14:12:50.046Z,2.30
2022-08-29T14:15:21.049Z,1.90
2022-08-29T14:17:48.105Z,2.05
2022-08-29T14:20:17.611Z,1.75
2022-08-29T14:22:45.232Z,2.10
2022-08-29T14:25:13.734Z,2.30
2022-08-29T14:27:40.960Z,1.85
2022-08-29T14:30:10.380Z,1.55
2022-08-29T14:32:37.302Z,2.15
2022-08-29T14:35:05.887Z,1.90
2022-08-29T14:37:32.672Z,1.90
2022-08-29T14:39:59.290Z,1.98
2022-08-29T14:42:26.003Z,1.73
2022-08-29T14:44:52.764Z,1.80
2022-08-29T14:47:20.446Z,2.03
2022-08-29T14:49:46.941Z,1.95
2022-08-29T14:52:15.059Z,2.13
2022-08-29T14:54:43.158Z,1.88
2022-08-29T14:57:10.661Z,1.70
2022-08-29T14:59:39.624Z,1.70
2022-08-29T15:02:08.261Z,1.50
2022-08-29T15:04:37.034Z,1.60
2022-08-29T15:07:11.875Z,1.83
2022-08-29T15:09:39.496Z,1.70
2022-08-29T15:12:06.319Z,1.70
2022-08-29T15:14:34.642Z,1.70
2022-08-29T15:17:02.067Z,1.55
2022-08-29T15:20:15.900Z,1.67
2022-08-29T15:22:15.487Z,1.65
2022-08-29T15:24:42.744Z,1.65
2022-08-29T15:27:09.975Z,1.40
2022-08-29T15:29:37.417Z,1.70
2022-08-29T15:32:05.055Z,1.55
2022-08-29T15:34:31.907Z,1.80
2022-08-29T15:36:59.554Z,1.48
2022-08-29T15:39:27.617Z,1.35
2022-08-29T15:41:59.736Z,1.17
2022-08-29T15:44:28.400Z,1.30
2022-08-29T15:46:56.700Z,1.50
2022-08-29T15:49:25.978Z,1.38
2022-08-29T15:51:53.663Z,1.10
2022-08-29T15:54:20.807Z,1.13
2022-08-29T15:56:47.423Z,1.48
2022-08-29T15:59:15.370Z,1.55
2022-08-29T16:01:45.969Z,1.60
2022-08-29T16:04:14.106Z,1.13
2022-08-29T16:06:40.942Z,1.10
2022-08-29T16:09:15.187Z,1.20
2022-08-29T16:11:44.319Z,1.08
2022-08-29T16:16:58.432Z,1.08
2022-08-29T16:19:25.036Z,1.40
2022-08-29T16:21:51.954Z,1.50
2022-08-29T16:24:21.618Z,1.20
2022-08-29T16:26:48.182Z,1.35
2022-08-29T16:29:14.733Z,1.42
2022-08-29T16:31:53.894Z,1.48
2022-08-29T16:34:20.870Z,1.70
2022-08-29T16:36:47.391Z,1.63
2022-08-29T16:39:13.955Z,1.52
2022-08-29T16:41:40.510Z,1.65
2022-08-29T16:44:08.205Z,1.40
2022-08-29T16:46:34.799Z,1.38
2022-08-29T16:49:01.467Z,1.60
2022-08-29T16:51:28.284Z,1.20
2022-08-29T16:53:58.126Z,1.35
2022-08-29T16:56:24.914Z,1.40
2022-08-29T16:59:01.499Z,1.50
2022-08-29T17:01:34.463Z,1.10
2022-08-29T17:04:02.377Z,1.10
2022-08-29T17:06:30.192Z,1.35
2022-08-29T17:08:57.208Z,0.98
2022-08-29T17:11:24.403Z,1.52
2022-08-29T17:13:51.076Z,1.48
2022-08-29T17:16:18.132Z,1.42
2022-08-29T17:18:45.225Z,1.20
2022-08-29T17:21:12.008Z,1.20
2022-08-29T17:23:39.001Z,1.17
2022-08-29T17:26:08.311Z,1.30
2022-08-29T17:28:36.637Z,1.35
2022-08-29T17:31:03.544Z,1.42
2022-08-29T17:33:30.130Z,1.10
2022-08-29T17:35:56.889Z,1.58
2022-08-29T17:38:24.683Z,1.50
2022-08-29T17:40:57.163Z,0.90
2022-08-29T17:43:25.900Z,1.00
2022-08-29T17:45:52.875Z,0.80
2022-08-29T17:48:20.209Z,1.10
2022-08-29T17:50:48.165Z,0.70
2022-08-29T17:53:14.990Z,0.75
2022-08-29T17:55:41.976Z,0.75
2022-08-29T17:58:08.799Z,0.80
2022-08-29T18:00:36.022Z,0.80
2022-08-29T18:03:02.599Z,0.55
2022-08-29T18:05:29.379Z,0.90
2022-08-29T18:07:56.988Z,1.00
2022-08-29T18:10:24.017Z,0.77
2022-08-29T18:12:50.550Z,1.00
2022-08-29T18:15:17.261Z,0.93
2022-08-29T18:17:45.289Z,0.60
2022-08-29T18:20:15.685Z,0.80
2022-08-29T18:22:43.190Z,0.88
2022-08-29T18:25:11.369Z,0.70
2022-08-29T18:27:43.681Z,0.80
2022-08-29T18:30:13.616Z,0.82
2022-08-29T18:32:40.893Z,0.68
2022-08-29T18:35:08.497Z,0.55
2022-08-29T18:37:35.369Z,0.50
2022-08-29T18:40:02.631Z,0.57
2022-08-29T18:42:40.649Z,0.77
2022-08-29T18:45:09.667Z,0.70
2022-08-29T18:47:37.099Z,0.75
2022-08-29T18:50:25.082Z,0.63
2022-08-29T18:52:52.972Z,0.65
2022-08-29T18:55:20.645Z,0.60
2022-08-29T18:57:48.258Z,0.90
2022-08-29T19:00:16.373Z,0.70
2022-08-29T19:02:43.164Z,0.60
2022-08-29T19:05:10.226Z,0.70
2022-08-29T19:07:36.808Z,0.50
2022-08-29T19:10:05.854Z,0.60
2022-08-29T19:12:32.680Z,0.52
2022-08-29T19:15:00.091Z,0.60
2022-08-29T19:17:26.831Z,0.55
2022-08-29T19:20:12.360Z,0.60
2022-08-29T19:22:39.434Z,0.50
2022-08-29T19:25:08.638Z,0.50
2022-08-29T19:27:43.564Z,0.50
2022-08-29T19:30:13.329Z,0.60
2022-08-29T19:32:40.205Z,0.65
2022-08-29T19:35:07.748Z,0.57
2022-08-29T19:37:34.352Z,0.40
2022-08-29T19:40:01.765Z,0.60
2022-08-29T19:42:28.439Z,0.40
2022-08-29T19:44:55.339Z,0.60
2022-08-29T19:47:24.015Z,0.40
2022-08-29T19:49:51.036Z,0.43
2022-08-29T19:52:18.051Z,0.60
2022-08-29T19:54:44.668Z,0.47
2022-08-29T19:57:14.768Z,0.43
2022-08-29T19:59:42.352Z,0.30
2022-08-29T20:02:09.509Z,0.47
2022-08-29T20:04:36.387Z,0.40
2022-08-29T20:07:03.114Z,0.40
2022-08-29T20:09:30.054Z,0.30
2022-08-29T20:11:57.131Z,0.40
2022-08-29T20:14:24.220Z,0.35
2022-08-29T20:16:51.698Z,0.28
2022-08-29T20:19:18.986Z,0.40
2022-08-29T20:21:46.026Z,0.30
2022-08-29T20:24:15.518Z,0.30
2022-08-29T20:26:42.936Z,0.20
2022-08-29T20:29:11.766Z,0.20
2022-08-29T20:31:39.069Z,0.30
2022-08-29T20:34:05.873Z,0.40
2022-08-29T20:36:51.042Z,0.40
2022-08-29T20:39:20.161Z,0.25
2022-08-29T20:41:56.076Z,0.50
2022-08-29T20:44:24.987Z,0.40
2022-08-29T20:46:52.179Z,0.52
2022-08-29T20:49:23.300Z,0.40
2022-08-29T20:51:51.448Z,0.30
2022-08-29T20:54:22.112Z,0.38
2022-08-29T20:56:49.445Z,0.40
2022-08-29T20:59:16.090Z,0.40
2022-08-29T21:01:43.511Z,0.35
2022-08-29T21:04:30.307Z,0.20
2022-08-29T21:07:01.078Z,0.30
2022-08-29T21:09:28.212Z,0.35
2022-08-29T21:11:55.484Z,0.35
2022-08-29T21:14:22.732Z,0.30
2022-08-29T21:16:51.538Z,0.50
2022-08-29T21:19:18.814Z,0.30
2022-08-29T21:21:45.582Z,0.40
2022-08-29T21:24:12.511Z,0.40
2022-08-29T21:26:40.047Z,0.32
2022-08-29T21:29:07.735Z,0.47
2022-08-29T21:31:36.061Z,0.52
2022-08-29T21:34:06.802Z,0.43
2022-08-29T21:36:36.075Z,0.45
2022-08-29T21:39:05.015Z,0.30
2022-08-29T21:41:32.849Z,0.40
2022-08-29T21:43:59.470Z,0.30
2022-08-29T21:46:29.727Z,0.25
2022-08-29T21:48:59.769Z,0.40
2022-08-29T21:51:28.364Z,0.30
2022-08-29T21:53:56.678Z,0.50
2022-08-29T21:56:25.253Z,0.30
2022-08-29T21:58:56.884Z,0.50
2022-08-29T22:01:27.671Z,0.52
2022-08-29T22:03:54.709Z,0.43
2022-08-29T22:06:22.400Z,0.40
2022-08-29T22:08:49.326Z,0.40
2022-08-29T22:11:24.181Z,0.40
2022-08-29T22:13:51.784Z,0.52
2022-08-29T22:16:28.767Z,0.50
2022-08-29T22:19:07.841Z,0.30
2022-08-29T22:21:38.338Z,0.40
2022-08-29T22:24:06.744Z,0.50
2022-08-29T22:26:34.825Z,0.30
2022-08-29T22:29:02.063Z,0.40
2022-08-29T22:31:28.693Z,0.40
2022-08-29T22:33:55.477Z,0.60
2022-08-29T22:36:22.551Z,0.45
2022-08-29T22:38:56.558Z,0.50
2022-08-29T22:41:24.340Z,0.50
2022-08-29T22:44:11.343Z,0.65
2022-08-29T22:46:43.143Z,0.50
2022-08-29T22:49:10.026Z,0.40
2022-08-29T22:51:36.565Z,0.68
2022-08-29T22:54:21.717Z,0.90
2022-08-29T22:56:48.275Z,0.70
2022-08-29T22:59:14.947Z,0.70
2022-08-29T23:01:44.150Z,0.80
2022-08-29T23:04:11.293Z,0.70
2022-08-29T23:06:38.110Z,0.73
2022-08-29T23:09:05.660Z,0.60
2022-08-29T23:11:32.643Z,0.70
2022-08-29T23:13:59.180Z,0.93
2022-08-29T23:16:25.835Z,0.70
2022-08-29T23:18:52.386Z,0.50
2022-08-29T23:21:19.893Z,0.70
2022-08-29T23:23:46.537Z,0.60
2022-08-29T23:26:13.104Z,0.50
2022-08-29T23:28:40.351Z,0.63
2022-08-29T23:31:07.025Z,0.70
2022-08-29T23:33:35.900Z,0.57
2022-08-29T23:36:03.072Z,0.90
2022-08-29T23:38:29.636Z,0.65
2022-08-29T23:40:57.513Z,0.43
2022-08-29T23:43:24.745Z,0.68
2022-08-29T23:45:54.592Z,0.60
2022-08-29T23:48:25.893Z,0.70
2022-08-29T23:50:53.446Z,0.80
2022-08-29T23:53:21.557Z,0.80
2022-08-29T23:55:48.982Z,1.00
2022-08-29T23:58:16.120Z,0.90
